Time;durP1;ratioP1;P1;durP2;ratioP2;P2;SDS_P1;SDS_P2;PMS_P1;PMS_P2;Temp;Humidity;BMP_temperature;BMP_pressure;BME280_temperature;BME280_humidity;BME280_pressure;Samples;Min_cycle;Max_cycle;Signal;HPM_P1;HPM_P2
2022/11/26 00:02:29;;;;;;;24.55;6.30;;;5.20;99.90;;;4.93;100.00;98658.22;5039527;28;20431;-72
2022/11/26 00:04:58;;;;;;;29.08;9.57;;;5.20;99.90;;;4.73;100.00;98660.81;5039466;28;20466;-71
2022/11/26 00:07:28;;;;;;;23.98;7.25;;;5.10;99.90;;;4.85;100.00;98659.09;5040010;28;20049;-70
2022/11/26 00:09:58;;;;;;;21.88;7.47;;;5.10;99.90;;;4.90;100.00;98667.63;5038851;28;20057;-71
2022/11/26 00:12:34;;;;;;;30.20;10.07;;;5.10;99.90;;;4.71;100.00;98671.97;5036615;28;20070;-72
2022/11/26 00:15:20;;;;;;;26.50;8.95;;;5.10;99.90;;;4.77;100.00;98682.25;5039494;28;20461;-71
2022/11/26 00:17:49;;;;;;;22.33;8.00;;;5.00;99.90;;;4.79;100.00;98680.53;5038931;28;20509;-72
2022/11/26 00:20:19;;;;;;;28.30;9.32;;;5.00;99.90;;;4.76;100.00;98686.53;5037302;28;20061;-71
2022/11/26 00:22:57;;;;;;;24.75;9.20;;;5.00;99.90;;;4.66;100.00;98684.84;5052145;28;20057;-72
2022/11/26 00:25:41;;;;;;;30.90;9.07;;;5.00;99.90;;;4.65;100.00;98689.97;5035572;28;20086;-71
2022/11/26 00:28:36;;;;;;;23.38;9.25;;;5.00;99.90;;;4.55;100.00;98700.28;5037034;28;20422;-70
2022/11/26 00:31:13;;;;;;;38.60;11.45;;;4.90;99.90;;;4.36;100.00;98698.56;5034660;28;20049;-69
2022/11/26 00:33:40;;;;;;;46.78;17.35;;;4.80;99.90;;;3.98;100.00;98699.38;5037534;28;21022;-72
2022/11/26 00:36:19;;;;;;;46.38;20.02;;;4.80;99.90;;;3.80;100.00;98694.22;5035858;28;20123;-72
2022/11/26 00:38:52;;;;;;;63.85;26.50;;;4.60;99.90;;;3.53;100.00;98703.53;5040767;28;20075;-71
2022/11/26 00:41:23;;;;;;;52.40;20.77;;;4.40;99.90;;;3.42;100.00;98703.50;5040603;28;20072;-71
2022/11/26 00:43:50;;;;;;;49.80;18.88;;;4.30;99.90;;;3.39;100.00;98715.47;5042646;28;20049;-72
2022/11/26 00:46:20;;;;;;;43.88;16.25;;;4.30;99.90;;;3.38;100.00;98712.03;5041230;28;20081;-71
2022/11/26 00:48:47;;;;;;;26.13;10.95;;;4.30;99.90;;;3.64;100.00;98709.56;5055493;28;20179;-71
2022/11/26 00:51:29;;;;;;;36.05;12.75;;;4.30;99.90;;;3.53;100.00;98716.38;5040095;28;20127;-72
2022/11/26 00:54:00;;;;;;;31.38;12.10;;;4.20;99.90;;;3.56;100.00;98709.56;5039836;28;20479;-71
2022/11/26 00:56:28;;;;;;;51.20;17.52;;;4.10;99.90;;;3.35;100.00;98717.13;5059294;28;20052;-72
2022/11/26 00:59:00;;;;;;;47.67;17.95;;;4.10;99.90;;;3.10;100.00;98726.41;5040197;28;20125;-71
2022/11/26 01:01:28;;;;;;;48.05;16.10;;;4.10;99.90;;;3.06;100.00;98733.25;5039877;28;20136;-70
2022/11/26 01:03:57;;;;;;;25.13;12.88;;;4.00;99.90;;;3.31;100.00;98736.81;5041513;28;20049;-73
2022/11/26 01:06:34;;;;;;;46.88;17.02;;;4.00;99.90;;;3.49;100.00;98732.59;5059316;28;20060;-70
2022/11/26 01:09:04;;;;;;;25.38;10.80;;;4.00;99.90;;;3.56;100.00;98729.22;5040855;28;20065;-73
2022/11/26 01:11:32;;;;;;;25.38;12.50;;;4.00;99.90;;;3.65;100.00;98733.53;5040618;28;20041;-72
2022/11/26 01:13:59;;;;;;;28.13;10.77;;;4.00;99.90;;;3.88;100.00;98737.03;5043853;28;20146;-72
2022/11/26 01:16:30;;;;;;;38.17;13.20;;;4.10;99.90;;;3.88;100.00;98743.91;5040627;28;20067;-71
2022/11/26 01:19:01;;;;;;;27.63;10.88;;;4.20;99.90;;;3.99;100.00;98747.31;5038731;28;21841;-72
2022/11/26 01:21:30;;;;;;;50.65;14.20;;;4.40;99.90;;;4.14;100.00;98749.94;5041190;28;20045;-71
2022/11/26 01:23:57;;;;;;;52.08;14.95;;;4.50;99.90;;;4.10;100.00;98749.94;5041376;28;20549;-72
2022/11/26 01:26:30;;;;;;;29.67;10.82;;;4.60;99.90;;;4.18;100.00;98755.94;5043668;28;20075;-72
2022/11/26 01:28:57;;;;;;;36.60;10.93;;;4.60;99.90;;;4.20;100.00;98759.38;5056101;28;20084;-72
2022/11/26 01:31:27;;;;;;;30.73;10.07;;;4.60;99.90;;;4.21;100.00;98761.09;5057362;28;20049;-72
2022/11/26 01:33:55;;;;;;;24.40;9.20;;;4.70;99.90;;;4.27;100.00;98761.09;5039546;28;20049;-72
2022/11/26 01:36:33;;;;;;;28.02;9.20;;;4.70;99.90;;;4.33;100.00;98770.53;5042911;28;20459;-72
2022/11/26 01:39:05;;;;;;;23.38;8.82;;;4.80;99.90;;;4.38;100.00;98784.25;5045952;28;20052;-71
2022/11/26 01:41:38;;;;;;;32.40;11.43;;;4.90;99.90;;;4.42;100.00;98782.53;5044352;28;20048;-71
2022/11/26 01:44:18;;;;;;;29.98;11.07;;;4.90;99.90;;;4.41;100.00;98784.25;5044983;28;20084;-72
2022/11/26 01:46:46;;;;;;;40.60;11.90;;;4.90;99.90;;;4.47;100.00;98776.56;5040719;28;20061;-70
2022/11/26 01:49:33;;;;;;;25.27;8.68;;;4.90;99.90;;;4.46;100.00;98777.41;5053811;28;20503;-72
2022/11/26 01:52:17;;;;;;;25.13;9.02;;;5.00;99.90;;;4.43;100.00;98773.97;5041895;28;20060;-71
2022/11/26 01:54:46;;;;;;;21.77;6.57;;;4.90;99.90;;;4.59;100.00;98775.72;5057803;28;20044;-70
2022/11/26 01:57:24;;;;;;;26.02;9.82;;;5.00;99.90;;;4.35;100.00;98776.53;5045186;28;20507;-71
2022/11/26 01:59:55;;;;;;;26.10;6.90;;;4.90;99.90;;;4.71;100.00;98778.28;5041092;28;20049;-71
2022/11/26 02:02:26;;;;;;;15.73;5.00;;;4.90;99.90;;;4.77;100.00;98782.56;5043315;28;20041;-72
2022/11/26 02:05:08;;;;;;;25.75;5.38;;;5.10;99.90;;;4.98;100.00;98784.28;5043823;28;20087;-72
2022/11/26 02:07:35;;;;;;;22.48;6.47;;;5.10;99.90;;;4.63;100.00;98784.25;5043932;28;20049;-71
2022/11/26 02:10:03;;;;;;;25.48;6.70;;;5.10;99.90;;;4.81;100.00;98789.41;5043603;28;21480;-71
2022/11/26 02:12:30;;;;;;;17.67;4.68;;;5.10;99.90;;;4.87;100.00;98786.00;5044280;28;20225;-71
2022/11/26 02:14:57;;;;;;;20.70;6.75;;;5.20;99.90;;;4.65;100.00;98782.56;5043057;28;20569;-71
2022/11/26 02:17:40;;;;;;;15.10;4.80;;;5.10;99.90;;;4.69;100.00;98784.28;5041231;28;20375;-71
2022/11/26 02:20:34;;;;;;;16.33;4.35;;;5.00;99.90;;;4.90;100.00;98779.13;5040898;28;20048;-70
2022/11/26 02:23:22;;;;;;;18.48;4.40;;;5.10;99.90;;;4.70;100.00;98785.97;5045364;28;20052;-71
2022/11/26 02:26:32;;;;;;;13.45;4.53;;;5.10;99.90;;;4.72;100.00;98786.84;5043800;28;20049;-71
2022/11/26 02:29:42;;;;;;;24.45;5.35;;;5.00;99.90;;;4.35;100.00;98795.38;5041236;28;20045;-71
2022/11/26 02:32:32;;;;;;;20.25;4.57;;;5.00;99.90;;;4.70;100.00;98784.28;5044618;28;20801;-72
2022/11/26 02:35:32;;;;;;;19.83;4.55;;;5.00;99.90;;;4.63;100.00;98785.16;5042291;28;20108;-71
2022/11/26 02:38:07;;;;;;;21.05;4.68;;;5.00;99.90;;;4.60;100.00;98785.97;5055792;28;20051;-70
2022/11/26 02:40:34;;;;;;;14.70;4.25;;;4.90;99.90;;;4.66;100.00;98786.84;5043214;28;20047;-71
2022/11/26 02:43:00;;;;;;;15.35;3.88;;;4.90;99.90;;;4.66;100.00;98792.00;5042769;28;20048;-72
2022/11/26 02:45:40;;;;;;;19.48;3.78;;;4.90;99.90;;;4.62;100.00;98786.00;5046733;28;21502;-71
2022/11/26 02:48:13;;;;;;;17.42;4.55;;;4.80;99.90;;;4.28;100.00;98793.66;5057135;28;20102;-71
2022/11/26 02:50:58;;;;;;;22.65;5.55;;;4.80;99.90;;;4.47;100.00;98791.09;5040716;28;20068;-71
2022/11/26 02:53:28;;;;;;;14.43;4.82;;;4.70;99.90;;;4.22;100.00;98785.94;5042126;28;20071;-71
2022/11/26 02:56:10;;;;;;;20.42;6.07;;;4.60;99.90;;;4.07;100.00;98789.31;5056769;28;20060;-71
2022/11/26 02:58:37;;;;;;;15.10;4.72;;;4.50;99.90;;;4.17;100.00;98792.75;5056385;28;20049;-71
2022/11/26 03:01:13;;;;;;;18.98;5.90;;;4.50;99.90;;;3.98;100.00;98789.28;5041936;28;20060;-69
2022/11/26 03:03:48;;;;;;;17.83;5.72;;;4.40;99.90;;;3.99;100.00;98788.44;5043843;28;20060;-71
2022/11/26 03:06:17;;;;;;;19.10;5.95;;;4.40;99.90;;;3.95;100.00;98786.72;5045164;28;20056;-71
2022/11/26 03:08:44;;;;;;;17.27;4.20;;;4.30;99.90;;;3.95;100.00;98791.88;5040410;28;20052;-70
2022/11/26 03:11:11;;;;;;;16.90;4.43;;;4.30;99.90;;;4.01;100.00;98785.88;5041145;28;20931;-72
2022/11/26 03:13:38;;;;;;;19.13;5.38;;;4.20;99.90;;;4.08;100.00;98783.34;5055051;28;20047;-71
2022/11/26 03:16:05;;;;;;;13.13;3.95;;;4.20;99.90;;;3.73;100.00;98785.78;5043218;28;20494;-71
2022/11/26 03:18:32;;;;;;;33.03;14.93;;;4.10;99.90;;;3.59;100.00;98780.59;5042858;28;20528;-71
2022/11/26 03:20:59;;;;;;;22.75;9.20;;;4.00;99.90;;;3.36;100.00;98783.03;5042586;28;20049;-71
2022/11/26 03:23:26;;;;;;;28.35;11.18;;;3.90;99.90;;;2.83;100.00;98786.97;5038283;28;20494;-69
2022/11/26 03:25:53;;;;;;;28.48;11.50;;;3.70;99.90;;;2.53;100.00;98782.41;5059124;28;20049;-71
2022/11/26 03:28:20;;;;;;;32.55;12.30;;;3.60;99.90;;;2.44;100.00;98780.66;5045304;28;20052;-71
2022/11/26 03:30:49;;;;;;;35.13;13.13;;;3.50;99.90;;;2.38;100.00;98778.03;5041426;28;20045;-71
2022/11/26 03:33:17;;;;;;;30.42;12.48;;;3.40;99.90;;;2.58;100.00;98785.03;5041992;28;20475;-70
2022/11/26 03:35:47;;;;;;;41.15;11.93;;;3.30;99.90;;;2.70;100.00;98782.59;5044619;28;20056;-71
2022/11/26 03:38:14;;;;;;;26.50;10.02;;;3.20;99.90;;;2.83;100.00;98783.50;5042188;28;20083;-71
2022/11/26 03:40:41;;;;;;;21.95;8.80;;;3.20;99.90;;;2.81;100.00;98780.97;5042863;28;20429;-70
2022/11/26 03:43:08;;;;;;;23.08;8.20;;;3.20;99.90;;;2.82;100.00;98771.56;5045394;28;20055;-71
2022/11/26 03:45:35;;;;;;;22.10;8.32;;;3.20;99.90;;;2.77;100.00;98778.38;5041676;28;20059;-72
2022/11/26 03:48:02;;;;;;;24.17;7.78;;;3.20;99.90;;;2.82;100.00;98781.81;5043800;28;20114;-71
2022/11/26 03:50:29;;;;;;;23.67;7.85;;;3.20;99.90;;;2.78;100.00;98778.34;5044030;28;20049;-71
2022/11/26 03:52:56;;;;;;;23.50;8.52;;;3.20;99.90;;;2.72;100.00;98775.75;5042982;28;20052;-71
2022/11/26 03:55:23;;;;;;;24.02;7.97;;;3.10;99.90;;;2.64;100.00;98780.81;5042185;28;20045;-71
2022/11/26 03:57:49;;;;;;;17.85;6.05;;;3.10;99.90;;;2.56;100.00;98794.44;5041980;28;20049;-71
2022/11/26 04:00:17;;;;;;;17.30;6.85;;;3.10;99.90;;;2.62;100.00;98800.47;5038457;28;20045;-72
2022/11/26 04:02:44;;;;;;;24.75;8.30;;;3.00;99.90;;;2.56;100.00;98794.44;5043703;28;20041;-70
2022/11/26 04:05:11;;;;;;;18.77;7.38;;;3.00;99.90;;;2.58;100.00;98795.28;5041372;28;20040;-70
2022/11/26 04:07:38;;;;;;;19.30;7.47;;;3.00;99.90;;;2.56;100.00;98805.53;5042635;28;20127;-71
2022/11/26 04:10:06;;;;;;;20.42;6.40;;;3.00;99.90;;;2.57;100.00;98807.25;5042742;28;20406;-70
2022/11/26 04:12:33;;;;;;;29.33;9.40;;;2.90;99.90;;;2.46;100.00;98799.47;5046675;28;20048;-71
2022/11/26 04:14:59;;;;;;;42.03;13.70;;;2.90;99.90;;;2.21;100.00;98805.19;5046585;28;20049;-71
2022/11/26 04:17:27;;;;;;;26.80;10.82;;;2.90;99.90;;;2.27;100.00;98795.00;5047567;28;20103;-71
2022/11/26 04:19:53;;;;;;;21.20;8.25;;;2.80;99.90;;;2.28;100.00;98796.69;5045127;28;20502;-70
2022/11/26 04:22:20;;;;;;;36.42;14.57;;;2.80;99.90;;;2.00;100.00;98801.53;5045882;28;20045;-70
2022/11/26 04:24:47;;;;;;;27.88;9.82;;;2.80;99.90;;;1.94;100.00;98793.81;5049238;28;20075;-70
2022/11/26 04:27:14;;;;;;;30.17;10.15;;;2.70;99.90;;;2.02;100.00;98799.00;5046293;28;20598;-71
2022/11/26 04:29:41;;;;;;;41.33;12.90;;;2.70;99.90;;;1.76;100.00;98804.69;5047016;28;20048;-71
2022/11/26 04:32:08;;;;;;;31.88;9.55;;;2.60;99.90;;;1.85;100.00;98815.03;5043850;28;20049;-70
2022/11/26 04:34:35;;;;;;;19.55;8.00;;;2.60;99.90;;;1.95;100.00;98821.13;5045131;28;20048;-72
2022/11/26 04:37:02;;;;;;;20.02;8.23;;;2.60;99.90;;;2.02;100.00;98827.16;5049242;28;20068;-71
2022/11/26 04:39:29;;;;;;;15.27;6.75;;;2.60;99.90;;;2.10;100.00;98825.56;5045746;28;20048;-70
2022/11/26 04:41:56;;;;;;;33.28;8.00;;;2.60;99.90;;;2.09;100.00;98828.97;5046848;28;20055;-69
2022/11/26 04:44:23;;;;;;;89.10;12.20;;;2.50;99.90;;;1.87;100.00;98827.84;5045872;28;20036;-71
2022/11/26 04:46:50;;;;;;;83.60;13.63;;;2.50;99.90;;;1.78;100.00;98825.16;5048851;28;20197;-72
2022/11/26 04:49:17;;;;;;;81.50;16.08;;;2.60;99.90;;;1.66;100.00;98833.56;5047515;28;20067;-71
2022/11/26 04:51:43;;;;;;;90.68;18.17;;;2.60;99.90;;;1.61;100.00;98835.19;5046893;28;20045;-71
2022/11/26 04:54:10;;;;;;;129.00;26.92;;;2.50;99.90;;;1.50;100.00;98832.47;5046717;28;20079;-70
2022/11/26 04:56:39;;;;;;;58.28;18.63;;;2.50;99.90;;;1.50;100.00;98839.31;5044674;28;20056;-71
2022/11/26 04:59:06;;;;;;;47.22;15.05;;;2.50;99.90;;;1.61;100.00;98840.31;5044656;28;20049;-72
2022/11/26 05:01:33;;;;;;;51.00;16.63;;;2.40;99.90;;;1.64;100.00;98853.13;5044726;28;20044;-70
2022/11/26 05:04:00;;;;;;;31.30;12.40;;;2.30;99.90;;;1.71;100.00;98860.09;5046647;28;20041;-71
2022/11/26 05:06:26;;;;;;;27.58;11.30;;;2.30;99.90;;;1.85;100.00;98858.56;5046973;28;20052;-70
2022/11/26 05:08:53;;;;;;;36.72;13.50;;;2.30;99.90;;;1.91;100.00;98868.00;5043750;28;20053;-71
2022/11/26 05:11:20;;;;;;;28.75;10.55;;;2.30;99.90;;;1.87;100.00;98873.91;5044846;28;20045;-71
2022/11/26 05:13:47;;;;;;;26.30;10.68;;;2.30;99.90;;;1.80;100.00;98885.81;5045798;28;20399;-71
2022/11/26 05:16:14;;;;;;;31.75;10.15;;;2.40;99.90;;;2.09;100.00;98887.88;5046326;28;20056;-72
2022/11/26 05:18:41;;;;;;;25.30;8.98;;;2.50;99.90;;;2.40;100.00;98891.66;5045639;28;20457;-70
2022/11/26 05:21:08;;;;;;;62.05;12.02;;;2.70;99.90;;;2.57;100.00;98890.97;5044970;28;20648;-72
2022/11/26 05:23:35;;;;;;;67.05;10.15;;;3.00;99.90;;;2.79;100.00;98897.19;5044202;28;20051;-70
2022/11/26 05:26:02;;;;;;;81.07;11.15;;;3.30;99.90;;;2.91;100.00;98900.72;5044779;28;20057;-71
2022/11/26 05:28:29;;;;;;;76.93;10.65;;;3.50;99.90;;;3.08;100.00;98902.56;5047446;28;20475;-71
2022/11/26 05:31:00;;;;;;;84.85;13.07;;;3.60;99.90;;;2.92;100.00;98899.88;5042537;28;20053;-71
2022/11/26 05:33:28;;;;;;;362.83;23.52;;;3.60;99.90;;;3.13;100.00;98911.19;5042712;28;20049;-71
2022/11/26 05:35:55;;;;;;;352.08;25.85;;;3.70;99.90;;;3.27;100.00;98913.84;5042318;28;20040;-70
2022/11/26 05:38:22;;;;;;;495.48;34.88;;;3.90;99.90;;;3.44;100.00;98911.41;5044416;28;20368;-70
2022/11/26 05:40:49;;;;;;;252.45;21.00;;;4.00;99.90;;;3.56;100.00;98912.38;5043466;28;20064;-71
2022/11/26 05:43:16;;;;;;;445.95;36.30;;;4.20;99.90;;;3.69;100.00;98915.84;5045037;28;20049;-70
2022/11/26 05:45:43;;;;;;;229.43;21.33;;;4.40;99.90;;;3.78;100.00;98921.03;5056872;28;20513;-70
2022/11/26 05:48:10;;;;;;;105.25;20.40;;;4.50;99.90;;;3.86;100.00;98913.41;5047096;28;20415;-71
2022/11/26 05:50:37;;;;;;;352.63;28.27;;;4.60;99.90;;;3.95;100.00;98916.03;5043349;28;20455;-71
2022/11/26 05:53:04;;;;;;;67.93;16.55;;;4.70;99.90;;;3.93;100.00;98916.88;5046616;28;20049;-71
2022/11/26 05:55:31;;;;;;;102.63;22.10;;;4.70;99.90;;;4.05;100.00;98913.50;5045446;28;20060;-72
2022/11/26 05:57:58;;;;;;;129.60;20.45;;;4.80;99.90;;;4.01;100.00;98916.91;5044395;28;20467;-71
2022/11/26 06:00:25;;;;;;;100.47;22.23;;;4.90;99.90;;;4.07;100.00;98911.78;5043263;28;20037;-71
2022/11/26 06:02:52;;;;;;;76.07;21.10;;;4.90;99.90;;;4.22;100.00;98906.75;5044742;28;20079;-71
2022/11/26 06:05:19;;;;;;;54.22;18.83;;;5.00;99.90;;;4.21;100.00;98911.84;5044493;28;20104;-71
2022/11/26 06:07:46;;;;;;;52.80;17.63;;;5.10;99.90;;;4.33;100.00;98911.91;5045996;28;20072;-70
2022/11/26 06:10:14;;;;;;;59.38;17.23;;;5.10;99.90;;;4.38;100.00;98915.38;5045531;28;20141;-72
2022/11/26 06:12:41;;;;;;;71.22;21.98;;;5.10;99.90;;;4.33;100.00;98910.22;5043547;28;20052;-70
2022/11/26 06:15:08;;;;;;;36.72;14.57;;;5.20;99.90;;;4.49;100.00;98916.22;5044379;28;20064;-71
2022/11/26 06:17:35;;;;;;;41.75;15.43;;;5.20;99.90;;;4.55;100.00;98915.41;5044819;28;20283;-71
2022/11/26 06:20:03;;;;;;;52.25;17.95;;;5.30;99.90;;;4.50;100.00;98925.69;5045070;28;20043;-70
2022/11/26 06:22:38;;;;;;;58.35;18.63;;;5.30;99.90;;;4.39;100.00;98924.78;5044276;28;20045;-71
2022/11/26 06:25:08;;;;;;;78.40;21.45;;;5.30;99.90;;;4.43;100.00;98920.53;5037857;28;20132;-71
2022/11/26 06:27:36;;;;;;;67.43;19.63;;;5.40;99.90;;;4.43;100.00;98928.25;5054969;28;20042;-71
2022/11/26 06:30:06;;;;;;;67.28;20.85;;;5.40;99.90;;;4.40;100.00;98921.34;5058248;28;20048;-71
2022/11/26 06:32:33;;;;;;;52.42;18.67;;;5.40;99.90;;;4.45;100.00;98922.25;5039615;28;20045;-70
2022/11/26 06:34:59;;;;;;;62.38;23.13;;;5.40;99.90;;;4.45;100.00;98917.09;5041425;28;20045;-71
2022/11/26 06:37:26;;;;;;;56.85;19.88;;;5.40;99.90;;;4.47;100.00;98914.50;5045925;28;20044;-72
2022/11/26 06:39:53;;;;;;;54.45;18.63;;;5.40;99.90;;;4.57;100.00;98921.41;5045518;28;20052;-70
2022/11/26 06:42:20;;;;;;;45.72;18.33;;;5.40;99.90;;;4.60;100.00;98927.41;5043551;28;20049;-71
2022/11/26 06:44:47;;;;;;;38.92;16.80;;;5.50;99.90;;;4.65;100.00;98927.44;5044797;28;20052;-70
2022/11/26 06:47:14;;;;;;;45.72;19.95;;;5.40;99.90;;;4.56;100.00;98929.97;5043308;28;20608;-71
2022/11/26 06:49:41;;;;;;;41.15;18.05;;;5.40;99.90;;;4.55;100.00;98935.97;5043795;28;20733;-70
2022/11/26 06:52:08;;;;;;;44.70;18.67;;;5.50;99.90;;;4.49;100.00;98943.66;5044899;28;20235;-72
2022/11/26 06:54:35;;;;;;;45.83;17.23;;;5.50;99.90;;;4.64;100.00;98945.44;5044043;28;20045;-72
2022/11/26 06:57:02;;;;;;;31.50;13.73;;;5.50;99.90;;;4.57;100.00;98949.72;5044001;28;20124;-71
2022/11/26 06:59:29;;;;;;;49.03;17.25;;;5.50;99.90;;;4.56;100.00;98946.28;5045711;28;20049;-71
2022/11/26 07:01:56;;;;;;;42.67;12.68;;;5.40;99.90;;;4.51;100.00;98947.94;5042880;28;20045;-69
2022/11/26 07:04:23;;;;;;;43.22;14.77;;;5.40;99.90;;;4.54;100.00;98944.56;5042257;28;20123;-71
2022/11/26 07:06:50;;;;;;;29.85;13.27;;;5.50;99.90;;;4.59;100.00;98945.44;5047472;28;20059;-71
2022/11/26 07:09:17;;;;;;;31.50;14.07;;;5.50;99.90;;;4.73;100.00;98950.63;5044389;28;20052;-70
2022/11/26 07:11:44;;;;;;;25.40;13.13;;;5.40;99.90;;;4.65;100.00;98944.56;5042866;28;20060;-71
2022/11/26 07:14:11;;;;;;;32.60;13.52;;;5.40;99.90;;;4.58;100.00;98953.97;5045854;28;20067;-70
2022/11/26 07:16:38;;;;;;;24.83;11.48;;;5.40;99.90;;;4.65;100.00;98947.16;5041829;28;20053;-71
2022/11/26 07:19:05;;;;;;;29.98;11.32;;;5.40;99.90;;;4.63;100.00;98941.13;5045654;28;20166;-71
2022/11/26 07:21:32;;;;;;;26.83;11.25;;;5.40;99.90;;;4.60;100.00;98950.56;5045200;28;20387;-70
2022/11/26 07:23:58;;;;;;;31.45;12.02;;;5.40;99.90;;;4.63;100.00;98949.75;5044912;28;20403;-70
2022/11/26 07:26:25;;;;;;;37.80;13.02;;;5.40;99.90;;;4.65;100.00;98962.56;5044137;28;20064;-71
2022/11/26 07:28:52;;;;;;;36.05;14.85;;;5.40;99.90;;;4.50;100.00;98959.09;5042248;28;20045;-71
2022/11/26 07:31:21;;;;;;;40.67;16.15;;;5.50;99.90;;;4.50;100.00;98958.25;5042126;28;20290;-71
2022/11/26 07:33:49;;;;;;;39.90;16.02;;;5.50;99.90;;;4.63;100.00;98965.16;5042527;28;20057;-71
2022/11/26 07:36:20;;;;;;;40.67;16.95;;;5.50;99.90;;;4.62;100.00;98960.84;5045722;28;20525;-70
2022/11/26 07:38:48;;;;;;;32.67;14.88;;;5.50;99.90;;;4.71;100.00;98962.59;5041977;28;20045;-71
2022/11/26 07:41:18;;;;;;;35.70;14.13;;;5.60;99.90;;;4.56;100.00;98971.13;5044748;28;20055;-71
2022/11/26 07:43:45;;;;;;;31.90;14.30;;;5.50;99.90;;;4.71;100.00;98970.31;5044232;28;20057;-71
2022/11/26 07:46:17;;;;;;;39.50;17.17;;;5.50;99.90;;;4.66;100.00;98977.19;5042806;28;20052;-72
2022/11/26 07:48:45;;;;;;;34.47;13.63;;;5.50;99.90;;;4.70;100.00;98984.91;5040382;28;20131;-71
2022/11/26 07:51:26;;;;;;;35.30;14.77;;;5.50;99.90;;;4.74;100.00;98989.19;5058480;28;20075;-71
2022/11/26 07:53:54;;;;;;;32.30;14.40;;;5.50;99.90;;;4.75;100.00;98993.50;5040823;28;20048;-70
2022/11/26 07:56:21;;;;;;;34.65;15.27;;;5.60;99.90;;;4.80;100.00;98996.94;5043054;28;20111;-71
2022/11/26 07:58:49;;;;;;;41.13;17.77;;;5.60;99.90;;;4.72;100.00;99003.78;5047349;28;20052;-71
2022/11/26 08:01:19;;;;;;;37.35;15.02;;;5.70;99.90;;;4.76;100.00;98995.19;5042188;28;20100;-71
2022/11/26 08:03:49;;;;;;;31.27;14.45;;;5.80;99.90;;;4.89;100.00;98993.53;5039720;28;20060;-70
2022/11/26 08:06:20;;;;;;;34.33;14.57;;;5.80;99.90;;;4.84;100.00;98995.25;5042055;28;20067;-71
2022/11/26 08:08:47;;;;;;;25.52;11.75;;;5.80;99.90;;;4.97;100.00;98989.28;5043624;28;20499;-70
2022/11/26 08:11:32;;;;;;;36.08;15.18;;;5.80;99.90;;;5.10;100.00;98999.59;5040992;28;20053;-70
2022/11/26 08:14:05;;;;;;;29.35;13.30;;;5.90;99.90;;;5.12;100.00;98993.59;5043717;28;20049;-71
2022/11/26 08:16:32;;;;;;;29.08;13.00;;;5.90;99.90;;;5.10;100.00;98997.88;5042034;28;20478;-71
2022/11/26 08:19:03;;;;;;;26.17;11.95;;;5.90;99.90;;;5.01;100.00;98996.13;5055748;28;20640;-71
2022/11/26 08:21:31;;;;;;;28.98;14.35;;;5.90;99.90;;;4.95;100.00;98992.69;5037793;28;20053;-71
2022/11/26 08:23:58;;;;;;;27.33;12.90;;;5.90;99.90;;;4.88;100.00;98994.41;5056200;28;20060;-71
2022/11/26 08:26:25;;;;;;;30.80;15.18;;;5.90;99.90;;;5.09;100.00;98996.16;5040968;28;20049;-70
2022/11/26 08:29:00;;;;;;;34.53;18.35;;;6.00;99.90;;;5.21;100.00;99006.47;5043458;28;20624;-71
2022/11/26 08:31:28;;;;;;;39.38;15.20;;;6.00;99.90;;;5.09;100.00;99014.19;5042500;28;20160;-69
2022/11/26 08:33:56;;;;;;;35.00;14.80;;;6.10;99.90;;;4.98;100.00;99016.72;5037241;28;20733;-71
2022/11/26 08:36:25;;;;;;;29.95;12.45;;;6.10;99.90;;;5.00;100.00;99014.16;5040754;28;20052;-70
2022/11/26 08:38:52;;;;;;;39.25;13.30;;;6.10;99.90;;;5.06;100.00;99013.28;5041924;28;20061;-71
2022/11/26 08:41:19;;;;;;;31.95;16.55;;;6.10;99.90;;;5.14;100.00;99009.91;5044319;28;20052;-71
2022/11/26 08:43:46;;;;;;;27.40;14.35;;;6.10;99.90;;;5.19;100.00;99015.06;5040079;28;20057;-70
2022/11/26 08:46:34;;;;;;;28.38;13.40;;;6.20;99.90;;;5.19;100.00;99012.47;5042167;28;20057;-70
2022/11/26 08:49:01;;;;;;;36.80;15.95;;;6.20;99.90;;;5.30;100.00;99009.94;5042955;28;20076;-71
2022/11/26 08:51:28;;;;;;;38.63;21.60;;;6.20;99.90;;;5.15;100.00;99014.16;5042905;28;20549;-70
2022/11/26 08:53:54;;;;;;;25.98;14.25;;;6.20;99.90;;;5.27;100.00;99010.78;5032894;28;20075;-70
2022/11/26 08:56:21;;;;;;;24.58;13.25;;;6.10;99.90;;;5.29;100.00;99021.94;5042359;28;20049;-70
2022/11/26 08:58:50;;;;;;;22.02;12.88;;;6.10;99.90;;;5.26;100.00;99024.50;5045408;28;20131;-70
2022/11/26 09:01:25;;;;;;;29.73;15.05;;;6.10;99.90;;;5.36;100.00;99017.63;5040833;28;20140;-68
2022/11/26 09:03:56;;;;;;;26.83;15.20;;;6.10;99.90;;;5.32;100.00;99021.94;5052418;28;20053;-70
2022/11/26 09:06:28;;;;;;;32.22;15.90;;;6.20;99.90;;;5.43;100.00;99020.25;5041258;28;20059;-70
2022/11/26 09:09:16;;;;;;;46.28;20.40;;;6.20;99.90;;;5.35;100.00;99023.66;5043054;28;20072;-70
2022/11/26 09:11:56;;;;;;;31.50;17.65;;;6.20;99.90;;;5.42;100.00;99012.50;5040127;28;20064;-69
2022/11/26 09:14:26;;;;;;;31.20;15.40;;;6.20;99.90;;;5.18;100.00;99016.78;5044117;28;20053;-69
2022/11/26 09:16:56;;;;;;;29.50;16.15;;;6.20;99.90;;;5.38;100.00;99014.25;5041567;28;20045;-70
2022/11/26 09:19:24;;;;;;;33.40;18.00;;;6.20;99.90;;;5.48;100.00;99009.09;5053258;28;20052;-70
2022/11/26 09:21:50;;;;;;;29.80;17.13;;;6.30;99.90;;;5.31;100.00;99009.06;5042506;28;20068;-70
2022/11/26 09:24:18;;;;;;;35.38;17.60;;;6.30;99.90;;;5.51;100.00;99006.50;5045245;28;20052;-71
2022/11/26 09:26:47;;;;;;;28.42;14.70;;;6.40;99.90;;;5.54;100.00;99006.50;5044331;28;20053;-70
2022/11/26 09:29:21;;;;;;;32.03;15.48;;;6.40;99.90;;;5.31;100.00;98998.75;5043941;28;20103;-70
2022/11/26 09:31:49;;;;;;;26.02;13.73;;;6.40;99.90;;;5.57;100.00;99006.53;5043838;28;20973;-69
2022/11/26 09:34:37;;;;;;;20.85;11.85;;;6.40;99.90;;;5.72;100.00;99005.66;5044340;28;20564;-68
2022/11/26 09:37:05;;;;;;;27.80;13.90;;;6.30;99.90;;;5.74;100.00;99009.09;5043491;28;20525;-69
2022/11/26 09:39:32;;;;;;;26.83;11.85;;;6.40;99.90;;;5.68;100.00;99015.13;5045515;28;20041;-70
2022/11/26 09:42:25;;;;;;;29.65;12.98;;;6.40;99.90;;;5.51;100.00;99014.25;5046174;28;20052;-70
2022/11/26 09:45:10;;;;;;;29.10;13.80;;;6.50;99.90;;;5.50;100.00;99013.38;5058015;28;20040;-70
2022/11/26 09:47:44;;;;;;;29.38;15.45;;;6.50;99.90;;;5.86;100.00;99012.53;5036800;28;20048;-70
2022/11/26 09:50:30;;;;;;;22.20;13.02;;;6.60;99.90;;;5.78;100.00;99013.38;5041106;28;20139;-69
2022/11/26 09:53:17;;;;;;;25.23;12.63;;;6.70;99.90;;;5.81;100.00;99016.81;5055075;28;20139;-71
2022/11/26 09:55:51;;;;;;;24.00;12.13;;;6.80;99.90;;;5.64;100.00;99015.97;5040314;28;20155;-70
2022/11/26 09:58:24;;;;;;;22.25;12.60;;;6.70;99.90;;;5.68;100.00;99012.53;5040213;28;20143;-71
2022/11/26 10:00:57;;;;;;;18.58;11.60;;;6.70;99.90;;;5.68;100.00;99009.09;5041633;28;20045;-71
2022/11/26 10:03:36;;;;;;;20.42;12.45;;;6.70;99.90;;;5.65;100.00;99028.81;5021363;28;20372;-71
2022/11/26 10:06:30;;;;;;;24.35;12.68;;;6.60;99.90;;;6.01;100.00;99031.44;5044992;28;20049;-70
2022/11/26 10:09:12;;;;;;;21.00;11.15;;;6.70;99.90;;;5.89;100.00;99027.13;5038677;28;20048;-71
2022/11/26 10:11:55;;;;;;;17.45;10.20;;;6.70;99.90;;;5.66;100.00;99020.25;5062118;28;20075;-70
2022/11/26 10:14:30;;;;;;;24.17;10.13;;;6.70;99.90;;;5.57;100.00;99025.41;5042448;28;20067;-68
2022/11/26 10:17:21;;;;;;;23.85;14.05;;;6.70;99.90;;;5.66;100.00;99027.13;5041046;28;20051;-72
2022/11/26 10:20:27;;;;;;;26.60;15.52;;;6.80;99.90;;;5.77;100.00;99030.56;5041726;28;20052;-71
2022/11/26 10:23:36;;;;;;;25.02;12.05;;;6.80;99.90;;;5.64;100.00;99026.28;5039383;28;20112;-69
2022/11/26 10:26:15;;;;;;;36.97;21.30;;;6.80;99.90;;;5.80;100.00;99025.41;5051977;28;20046;-70
2022/11/26 10:28:49;;;;;;;18.65;10.88;;;6.90;99.90;;;5.75;100.00;99028.84;5041514;28;20049;-71
2022/11/26 10:31:27;;;;;;;20.50;11.15;;;6.80;99.90;;;5.79;100.00;99021.13;5039701;28;20142;-70
2022/11/26 10:34:03;;;;;;;25.38;14.35;;;6.90;99.90;;;6.08;100.00;99010.81;5044679;28;20093;-72